createdAt,value
2022-09-07T00:00:49.293Z,101937.03
2022-09-07T00:03:16.772Z,101939.72
2022-09-07T00:05:44.837Z,101921.13
2022-09-07T00:08:12.239Z,101927.34
2022-09-07T00:10:38.979Z,101931.84
2022-09-07T00:13:07.643Z,101932.78
2022-09-07T00:15:41.314Z,101929.28
2022-09-07T00:18:08.001Z,101926.81
2022-09-07T00:20:35.065Z,101927.81
2022-09-07T00:23:01.700Z,101919.97
2022-09-07T00:25:32.175Z,101932.53
2022-09-07T00:27:59.364Z,101925.63
2022-09-07T00:30:28.792Z,101927.56
2022-09-07T00:32:55.447Z,101921.53
2022-09-07T00:35:22.093Z,101926.06
2022-09-07T00:37:48.781Z,101927.09
2022-09-07T00:40:15.514Z,101928.19
2022-09-07T00:42:45.395Z,101931.81
2022-09-07T00:45:17.806Z,101925.81
2022-09-07T00:47:56.799Z,101931.34
2022-09-07T00:50:30.950Z,101934.09
2022-09-07T00:53:03.823Z,101941.19
2022-09-07T00:55:38.252Z,101929.66
2022-09-07T00:58:08.283Z,101922.53
2022-09-07T01:00:35.937Z,101931.31
2022-09-07T01:03:04.278Z,101933.09
2022-09-07T01:06:02.132Z,101934.03
2022-09-07T01:08:29.311Z,101932.31
2022-09-07T01:10:58.059Z,101935.00
2022-09-07T01:13:24.692Z,101931.50
2022-09-07T01:16:16.698Z,101927.16
2022-09-07T01:18:50.923Z,101927.28
2022-09-07T01:21:17.991Z,101930.00
2022-09-07T01:23:59.771Z,101926.47
2022-09-07T01:27:07.685Z,101934.50
2022-09-07T01:29:50.014Z,101932.72
2022-09-07T01:32:33.518Z,101934.44
2022-09-07T01:35:05.259Z,101929.94
2022-09-07T01:37:42.973Z,101939.69
2022-09-07T01:40:09.677Z,101930.94
2022-09-07T01:42:54.548Z,101939.88
2022-09-07T01:45:26.149Z,101932.88
2022-09-07T01:47:57.206Z,101930.22
2022-09-07T01:50:43.219Z,101924.91
2022-09-07T01:53:32.383Z,101937.38
2022-09-07T01:56:08.328Z,101939.22
2022-09-07T01:59:03.771Z,101927.63
2022-09-07T02:01:44.217Z,101928.56
2022-09-07T02:04:17.033Z,101925.03
2022-09-07T02:06:58.813Z,101925.94
2022-09-07T02:09:32.285Z,101925.03
2022-09-07T02:12:03.223Z,101922.38
2022-09-07T02:14:36.889Z,101930.28
2022-09-07T02:17:13.602Z,101923.25
2022-09-07T02:19:54.683Z,101918.84
2022-09-07T02:22:27.658Z,101919.81
2022-09-07T02:25:01.055Z,101922.53
2022-09-07T02:27:35.711Z,101927.91
2022-09-07T02:30:02.526Z,101931.53
2022-09-07T02:32:29.144Z,101933.38
2022-09-07T02:34:55.791Z,101932.47
2022-09-07T02:37:23.742Z,101935.09
2022-09-07T02:39:50.459Z,101937.75
2022-09-07T02:42:17.109Z,101937.81
2022-09-07T02:44:46.576Z,101934.34
2022-09-07T02:47:37.870Z,101938.78
2022-09-07T02:50:46.134Z,101939.75
2022-09-07T02:53:34.143Z,101945.13
2022-09-07T02:56:09.848Z,101943.34
2022-09-07T02:59:01.011Z,101945.16
2022-09-07T03:02:04.939Z,101939.91
2022-09-07T03:05:01.771Z,101943.53
2022-09-07T03:07:45.310Z,101947.13
2022-09-07T03:10:14.936Z,101952.50
2022-09-07T03:12:47.256Z,101946.44
2022-09-07T03:15:27.161Z,101946.44
2022-09-07T03:17:53.952Z,101948.28
2022-09-07T03:20:22.371Z,101945.63
2022-09-07T03:22:50.584Z,101948.38
2022-09-07T03:25:18.337Z,101952.84
2022-09-07T03:27:45.265Z,101952.88
2022-09-07T03:30:13.349Z,101946.72
2022-09-07T03:32:40.496Z,101953.78
2022-09-07T03:35:08.505Z,101956.47
2022-09-07T03:37:38.702Z,101948.56
2022-09-07T03:40:07.875Z,101950.41
2022-09-07T03:42:34.974Z,101957.53
2022-09-07T03:45:02.128Z,101959.34
2022-09-07T03:47:28.763Z,101960.25
2022-09-07T03:49:55.434Z,101962.03
2022-09-07T03:52:22.062Z,101957.69
2022-09-07T03:54:48.775Z,101951.53
2022-09-07T03:57:15.373Z,101954.25
2022-09-07T03:59:41.998Z,101949.91
2022-09-07T04:02:08.668Z,101948.19
2022-09-07T04:04:35.366Z,101956.16
2022-09-07T04:07:02.046Z,101953.53
2022-09-07T04:09:28.669Z,101957.03
2022-09-07T04:11:55.355Z,101954.34
2022-09-07T04:14:22.106Z,101955.31
2022-09-07T04:16:49.219Z,101960.66
2022-09-07T04:19:15.996Z,101965.13
2022-09-07T04:21:47.274Z,101962.50
2022-09-07T04:24:15.203Z,101971.28
2022-09-07T04:26:43.762Z,101979.19
2022-09-07T04:29:12.187Z,101969.50
2022-09-07T04:31:40.029Z,101971.31
2022-09-07T04:34:07.174Z,101976.66
2022-09-07T04:36:33.914Z,101973.16
2022-09-07T04:39:03.677Z,101975.84
2022-09-07T04:41:32.091Z,101969.66
2022-09-07T04:44:01.954Z,101970.50
2022-09-07T04:46:31.303Z,101979.28
2022-09-07T04:48:59.714Z,101981.06
2022-09-07T04:51:31.276Z,101977.56
2022-09-07T04:53:59.870Z,101981.13
2022-09-07T04:56:27.009Z,101987.34
2022-09-07T04:58:53.740Z,101987.34
2022-09-07T05:01:23.334Z,101994.38
2022-09-07T05:03:50.831Z,101989.94
2022-09-07T05:06:19.062Z,101987.22
2022-09-07T05:08:48.511Z,101988.97
2022-09-07T05:11:16.589Z,101990.72
2022-09-07T05:13:43.332Z,101996.91
2022-09-07T05:16:11.139Z,101995.97
2022-09-07T05:18:40.948Z,101995.94
2022-09-07T05:21:12.315Z,101995.06
2022-09-07T05:23:39.674Z,101998.56
2022-09-07T05:26:06.910Z,101995.94
2022-09-07T05:28:42.150Z,101998.56
2022-09-07T05:31:19.464Z,101991.47
2022-09-07T05:36:35.601Z,101997.59
2022-09-07T05:39:02.236Z,102000.25
2022-09-07T05:41:29.051Z,101998.44
2022-09-07T05:46:42.583Z,102002.78
2022-09-07T05:49:09.331Z,102008.88
2022-09-07T05:51:37.328Z,102007.00
2022-09-07T05:54:04.538Z,102010.47
2022-09-07T05:56:36.222Z,102007.78
2022-09-07T05:59:03.823Z,102006.88
2022-09-07T06:01:31.056Z,102011.22
2022-09-07T06:03:57.813Z,102020.03
2022-09-07T06:06:24.463Z,102021.72
2022-09-07T06:08:54.099Z,102015.47
2022-09-07T06:11:25.236Z,102017.13
2022-09-07T06:13:52.845Z,102017.03
2022-09-07T06:16:20.300Z,102019.59
2022-09-07T06:18:49.574Z,102017.69
2022-09-07T06:21:20.814Z,102006.97
2022-09-07T06:23:48.502Z,102011.28
2022-09-07T06:26:16.657Z,102018.22
2022-09-07T06:28:48.901Z,102016.31
2022-09-07T06:31:18.884Z,102020.63
2022-09-07T06:33:47.622Z,102016.91
2022-09-07T06:36:19.910Z,102023.88
2022-09-07T06:38:47.775Z,102021.06
2022-09-07T06:44:06.922Z,102030.41
2022-09-07T06:49:20.130Z,102026.53
2022-09-07T06:51:46.794Z,102031.72
2022-09-07T06:57:00.177Z,102032.28
2022-09-07T06:59:26.808Z,102031.28
2022-09-07T07:01:53.457Z,102034.66
2022-09-07T07:04:20.226Z,102035.34
2022-09-07T07:06:46.822Z,102047.53
2022-09-07T07:09:14.181Z,102050.00
2022-09-07T07:11:43.544Z,102045.41
2022-09-07T07:14:17.477Z,102043.47
2022-09-07T07:16:44.442Z,102045.06
2022-09-07T07:19:11.417Z,102043.94
2022-09-07T07:22:03.422Z,102046.47
2022-09-07T07:24:24.695Z,102050.69
2022-09-07T07:26:51.345Z,102046.13
2022-09-07T07:29:18.945Z,102051.28
2022-09-07T07:31:49.059Z,102048.50
2022-09-07T07:34:15.707Z,102048.28
2022-09-07T07:36:42.398Z,102051.66
2022-09-07T07:41:58.943Z,102053.00
2022-09-07T07:44:28.393Z,102054.56
2022-09-07T07:46:55.039Z,102058.84
2022-09-07T07:49:21.912Z,102054.16
2022-09-07T07:54:37.027Z,102053.69
2022-09-07T07:57:05.374Z,102057.91
2022-09-07T07:59:32.046Z,102055.78
2022-09-07T08:02:04.406Z,102058.97
2022-09-07T08:04:33.306Z,102051.34
2022-09-07T08:07:00.279Z,102047.94
2022-09-07T08:09:27.154Z,102053.44
2022-09-07T08:11:53.800Z,102053.94
2022-09-07T08:14:21.936Z,102051.22
2022-09-07T08:16:48.554Z,102049.44
2022-09-07T08:19:15.332Z,102059.03
2022-09-07T08:21:41.995Z,102060.28
2022-09-07T08:24:08.635Z,102058.97
2022-09-07T08:26:35.495Z,102058.69
2022-09-07T08:29:02.054Z,102056.97
2022-09-07T08:31:28.744Z,102050.41
2022-09-07T08:33:55.440Z,102052.22
2022-09-07T08:36:22.108Z,102059.88
2022-09-07T08:38:48.758Z,102060.13
2022-09-07T08:41:39.488Z,102058.13
2022-09-07T08:44:18.890Z,102060.47
2022-09-07T08:47:14.378Z,102064.13
2022-09-07T08:49:43.958Z,102067.53
2022-09-07T08:52:23.641Z,102055.88
2022-09-07T08:55:00.725Z,102061.19
2022-09-07T08:57:31.141Z,102059.03
2022-09-07T09:00:02.972Z,102051.34
2022-09-07T09:02:32.606Z,102057.78
2022-09-07T09:05:17.596Z,102050.66
2022-09-07T09:07:59.562Z,102053.78
2022-09-07T09:10:51.482Z,102053.84
2022-09-07T09:13:26.705Z,102052.75
2022-09-07T09:16:05.096Z,102058.03
2022-09-07T09:18:54.709Z,102054.34
2022-09-07T09:21:21.364Z,102054.03
2022-09-07T09:23:52.942Z,102044.50
2022-09-07T09:26:31.042Z,102049.13
2022-09-07T09:28:57.658Z,102056.25
2022-09-07T09:31:36.163Z,102056.25
2022-09-07T09:34:05.606Z,102052.41
2022-09-07T09:36:40.107Z,102051.09
2022-09-07T09:39:29.548Z,102046.22
2022-09-07T09:42:00.039Z,102044.38
2022-09-07T09:44:33.794Z,102047.09
2022-09-07T09:49:48.928Z,102045.78
2022-09-07T09:52:30.188Z,102038.97
2022-09-07T09:55:23.294Z,102033.88
2022-09-07T10:04:00.472Z,102031.47
2022-09-07T10:06:29.219Z,102031.59
2022-09-07T10:08:58.889Z,102025.19
2022-09-07T10:14:34.193Z,102035.06
2022-09-07T10:17:10.127Z,102025.72
2022-09-07T10:19:39.733Z,102029.81
2022-09-07T10:23:04.931Z,102020.47
2022-09-07T10:25:44.425Z,102021.75
2022-09-07T10:28:14.188Z,102030.84
2022-09-07T10:31:15.346Z,102017.66
2022-09-07T10:37:03.451Z,102018.50
2022-09-07T10:39:43.959Z,102025.78
2022-09-07T10:42:26.286Z,102028.88
2022-09-07T10:45:24.089Z,102028.72
2022-09-07T10:48:03.170Z,102024.06
2022-09-07T10:50:50.262Z,102030.53
2022-09-07T10:53:47.239Z,102029.00
2022-09-07T10:56:41.006Z,102025.03
2022-09-07T10:59:24.006Z,102022.19
2022-09-07T11:02:14.398Z,102028.16
2022-09-07T11:04:50.669Z,102030.50
2022-09-07T11:07:23.049Z,102035.53
2022-09-07T11:09:55.573Z,102036.47
2022-09-07T11:12:28.374Z,102033.78
2022-09-07T11:15:13.015Z,102027.53
2022-09-07T11:17:52.966Z,102031.22
2022-09-07T11:20:31.575Z,102023.19
2022-09-07T11:22:58.106Z,102025.72
2022-09-07T11:25:31.349Z,102014.84
2022-09-07T11:28:00.774Z,102033.47
2022-09-07T11:30:35.858Z,102037.25
2022-09-07T11:33:12.834Z,102027.69
2022-09-07T11:36:12.394Z,102025.22
2022-09-07T11:38:45.490Z,102025.38
2022-09-07T11:41:29.121Z,102027.47
2022-09-07T11:44:13.499Z,102025.66
2022-09-07T11:46:46.018Z,102031.59
2022-09-07T11:49:26.042Z,102023.03
2022-09-07T11:52:05.281Z,102014.38
2022-09-07T11:54:48.897Z,102019.38
2022-09-07T11:57:15.462Z,102019.94
2022-09-07T12:00:12.282Z,102018.41
2022-09-07T12:03:06.274Z,102009.03
2022-09-07T12:05:47.931Z,102012.50
2022-09-07T12:08:20.481Z,102014.13
2022-09-07T12:10:47.083Z,102023.81
2022-09-07T12:13:25.453Z,102015.84
2022-09-07T12:15:58.116Z,102015.91
2022-09-07T12:18:39.862Z,102013.56
2022-09-07T12:21:28.235Z,102014.75
2022-09-07T12:23:54.937Z,102019.56
2022-09-07T12:26:49.879Z,102026.22
2022-09-07T12:29:23.155Z,102023.78
2022-09-07T12:32:52.614Z,102027.59
2022-09-07T12:34:51.236Z,102029.63
2022-09-07T12:37:26.802Z,102025.66
2022-09-07T12:40:27.779Z,102021.22
2022-09-07T12:43:47.100Z,102019.25
2022-09-07T12:46:40.728Z,102014.28
2022-09-07T12:49:52.769Z,102018.41
2022-09-07T12:52:34.469Z,102017.41
2022-09-07T12:55:28.514Z,102003.59
2022-09-07T12:58:08.338Z,102012.06
2022-09-07T13:00:47.102Z,102016.97
2022-09-07T13:03:50.251Z,102011.94
2022-09-07T13:09:42.442Z,102021.59
2022-09-07T13:12:54.712Z,102018.09
2022-09-07T13:15:32.435Z,102022.78
2022-09-07T13:17:59.657Z,102023.19
2022-09-07T13:20:36.242Z,102029.28
2022-09-07T13:23:25.898Z,102024.78
2022-09-07T13:25:55.112Z,102042.19
2022-09-07T13:28:31.807Z,102036.25
2022-09-07T13:31:24.882Z,102033.97
2022-09-07T13:33:53.186Z,102038.94
2022-09-07T13:36:25.818Z,102047.13
2022-09-07T13:38:54.548Z,102038.47
2022-09-07T13:41:43.355Z,102031.50
2022-09-07T13:44:24.995Z,102036.06
2022-09-07T13:47:13.305Z,102034.19
2022-09-07T13:50:05.272Z,102042.31
2022-09-07T13:52:47.888Z,102046.31
2022-09-07T13:55:41.182Z,102055.19
2022-09-07T13:58:18.060Z,102047.94
2022-09-07T14:00:55.489Z,102058.09
2022-09-07T14:03:27.396Z,102056.66
2022-09-07T14:06:13.691Z,102062.63
2022-09-07T14:08:41.097Z,102053.53
2022-09-07T14:11:39.109Z,102060.25
2022-09-07T14:14:14.714Z,102059.59
2022-09-07T14:16:44.594Z,102064.25
2022-09-07T14:19:41.326Z,102065.34
2022-09-07T14:22:20.349Z,102062.28
2022-09-07T14:24:49.985Z,102061.72
2022-09-07T14:27:22.954Z,102064.66
2022-09-07T14:29:50.363Z,102064.13
2022-09-07T14:32:22.483Z,102060.78
2022-09-07T14:34:50.164Z,102065.31
2022-09-07T14:37:19.474Z,102067.13
2022-09-07T14:39:49.671Z,102060.91
2022-09-07T14:42:24.070Z,102061.69
2022-09-07T14:44:53.349Z,102066.16
2022-09-07T14:47:30.882Z,102061.81
2022-09-07T14:50:07.966Z,102070.00
2022-09-07T14:52:44.092Z,102061.25
2022-09-07T14:55:34.007Z,102073.97
2022-09-07T14:58:15.926Z,102072.31
2022-09-07T15:00:43.897Z,102078.66
2022-09-07T15:03:39.980Z,102071.72
2022-09-07T15:06:09.021Z,102067.41
2022-09-07T15:08:40.127Z,102070.06
2022-09-07T15:11:37.953Z,102065.63
2022-09-07T15:14:20.720Z,102066.69
2022-09-07T15:19:45.666Z,102077.72
2022-09-07T15:22:13.526Z,102071.75
2022-09-07T15:24:40.302Z,102069.25
2022-09-07T15:27:26.685Z,102064.78
2022-09-07T15:29:53.407Z,102074.63
2022-09-07T15:32:20.164Z,102064.91
2022-09-07T15:34:46.804Z,102072.19
2022-09-07T15:40:01.571Z,102074.00
2022-09-07T15:45:15.776Z,102066.81
2022-09-07T15:47:50.621Z,102063.13
2022-09-07T15:50:18.824Z,102061.41
2022-09-07T15:52:46.362Z,102065.97
2022-09-07T15:55:14.451Z,102058.09
2022-09-07T15:57:51.184Z,102064.25
2022-09-07T16:00:19.756Z,102066.94
2022-09-07T16:03:05.455Z,102065.25
2022-09-07T16:05:33.462Z,102061.00
2022-09-07T16:10:53.582Z,102058.63
2022-09-07T16:13:20.856Z,102072.97
2022-09-07T16:15:48.887Z,102069.47
2022-09-07T16:18:17.472Z,102065.97
2022-09-07T16:20:44.930Z,102067.84
2022-09-07T16:23:14.689Z,102068.81
2022-09-07T16:25:43.303Z,102063.59
2022-09-07T16:28:10.948Z,102062.69
2022-09-07T16:30:41.874Z,102060.88
2022-09-07T16:33:08.622Z,102069.09
2022-09-07T16:35:35.302Z,102069.22
2022-09-07T16:40:50.657Z,102073.16
2022-09-07T16:43:17.808Z,102066.97
2022-09-07T16:48:32.663Z,102074.44
2022-09-07T16:51:02.317Z,102072.81
2022-09-07T16:53:31.243Z,102071.97
2022-09-07T16:56:02.154Z,102069.47
2022-09-07T16:58:38.341Z,102067.78
2022-09-07T17:01:10.250Z,102070.56
2022-09-07T17:03:37.578Z,102072.56
2022-09-07T17:06:07.027Z,102073.50
2022-09-07T17:08:34.950Z,102075.44
2022-09-07T17:11:06.737Z,102077.31
2022-09-07T17:13:35.285Z,102078.28
2022-09-07T17:16:13.343Z,102084.63
2022-09-07T17:21:33.163Z,102082.53
2022-09-07T17:24:00.276Z,102103.13
2022-09-07T17:26:27.459Z,102103.25
2022-09-07T17:29:00.410Z,102099.88
2022-09-07T17:34:19.887Z,102109.31
2022-09-07T17:36:47.038Z,102102.47
2022-09-07T17:39:16.295Z,102111.50
2022-09-07T17:41:44.097Z,102113.31
2022-09-07T17:44:11.123Z,102112.66
2022-09-07T17:46:37.962Z,102115.56
2022-09-07T17:49:07.103Z,102117.56
2022-09-07T17:51:33.859Z,102119.44
2022-09-07T17:54:02.866Z,102120.34
2022-09-07T17:56:31.019Z,102123.06
2022-09-07T18:01:45.295Z,102126.13
2022-09-07T18:04:12.034Z,102126.44
2022-09-07T18:06:40.263Z,102123.06
2022-09-07T18:09:07.141Z,102138.34
2022-09-07T18:11:50.166Z,102125.19
2022-09-07T18:14:18.328Z,102130.63
2022-09-07T18:16:46.948Z,102131.53
2022-09-07T18:19:14.532Z,102138.69
2022-09-07T18:21:43.063Z,102140.59
2022-09-07T18:24:14.019Z,102134.53
2022-09-07T18:26:41.087Z,102133.78
2022-09-07T18:29:25.799Z,102139.19
2022-09-07T18:31:53.913Z,102136.63
2022-09-07T18:34:20.788Z,102144.81
2022-09-07T18:36:47.677Z,102142.25
2022-09-07T18:39:14.543Z,102142.44
2022-09-07T18:41:42.184Z,102144.31
2022-09-07T18:45:27.168Z,102147.84
2022-09-07T18:46:55.559Z,102145.22
2022-09-07T18:49:22.161Z,102147.97
2022-09-07T18:54:35.449Z,102151.00
2022-09-07T18:57:02.117Z,102151.91
2022-09-07T18:59:29.806Z,102158.19
2022-09-07T19:02:03.035Z,102161.88
2022-09-07T19:07:17.870Z,102158.53
2022-09-07T19:09:44.512Z,102158.66
2022-09-07T19:12:11.123Z,102157.94
2022-09-07T19:14:37.735Z,102152.69
2022-09-07T19:17:04.405Z,102158.00
2022-09-07T19:19:31.099Z,102159.94
2022-09-07T19:21:58.335Z,102155.56
2022-09-07T19:24:25.813Z,102157.56
2022-09-07T19:26:55.718Z,102159.34
2022-09-07T19:29:25.221Z,102166.47
2022-09-07T19:32:05.561Z,102164.81
2022-09-07T19:34:37.497Z,102163.13
2022-09-07T19:37:05.760Z,102166.78
2022-09-07T19:39:32.533Z,102170.41
2022-09-07T19:41:59.272Z,102164.41
2022-09-07T19:44:26.215Z,102158.41
2022-09-07T19:46:52.882Z,102162.03
2022-09-07T19:49:19.782Z,102163.84
2022-09-07T19:51:48.160Z,102170.19
2022-09-07T19:54:15.101Z,102162.25
2022-09-07T19:56:42.869Z,102166.75
2022-09-07T19:59:09.800Z,102163.25
2022-09-07T20:01:37.733Z,102165.13
2022-09-07T20:04:07.160Z,102160.81
2022-09-07T20:06:34.887Z,102163.53
2022-09-07T20:09:01.886Z,102165.44
2022-09-07T20:11:28.801Z,102161.00
2022-09-07T20:13:57.132Z,102154.00
2022-09-07T20:16:24.762Z,102156.78
2022-09-07T20:18:51.921Z,102156.03
2022-09-07T20:21:21.209Z,102162.38
2022-09-07T20:23:47.895Z,102159.78
2022-09-07T20:26:17.571Z,102167.75
2022-09-07T20:28:44.298Z,102167.81
2022-09-07T20:31:13.773Z,102169.59
2022-09-07T20:33:41.382Z,102173.13
2022-09-07T20:36:10.752Z,102168.81
2022-09-07T20:38:52.563Z,102179.44
2022-09-07T20:41:21.827Z,102183.91
2022-09-07T20:43:49.148Z,102179.50
2022-09-07T20:46:16.449Z,102179.50
2022-09-07T20:48:43.604Z,102183.91
2022-09-07T20:51:14.252Z,102184.88
2022-09-07T20:53:42.654Z,102197.34
2022-09-07T20:56:19.667Z,102185.78
2022-09-07T20:58:47.852Z,102194.69
2022-09-07T21:01:17.908Z,102193.88
2022-09-07T21:03:49.834Z,102186.91
2022-09-07T21:06:17.447Z,102186.16
2022-09-07T21:08:45.590Z,102187.97
2022-09-07T21:11:15.264Z,102188.94
2022-09-07T21:13:42.521Z,102188.13
2022-09-07T21:16:14.276Z,102189.09
2022-09-07T21:18:41.509Z,102184.69
2022-09-07T21:21:23.676Z,102188.25
2022-09-07T21:23:55.991Z,102190.97
2022-09-07T21:26:23.688Z,102184.91
2022-09-07T21:28:58.522Z,102193.78
2022-09-07T21:31:26.016Z,102187.66
2022-09-07T21:33:58.474Z,102191.31
2022-09-07T21:36:26.009Z,102201.13
2022-09-07T21:38:54.355Z,102198.53
2022-09-07T21:41:24.445Z,102202.09
2022-09-07T21:44:02.041Z,102192.34
2022-09-07T21:46:30.688Z,102197.72
2022-09-07T21:48:58.345Z,102196.00
2022-09-07T21:51:26.674Z,102193.38
2022-09-07T21:53:56.402Z,102196.94
2022-09-07T21:56:31.829Z,102200.50
2022-09-07T21:59:01.113Z,102198.72
2022-09-07T22:01:33.757Z,102205.84
2022-09-07T22:04:02.988Z,102204.94
2022-09-07T22:06:33.175Z,102208.53
2022-09-07T22:09:14.072Z,102216.56
2022-09-07T22:11:45.291Z,102214.81
2022-09-07T22:14:17.218Z,102208.63
2022-09-07T22:16:46.002Z,102211.28
2022-09-07T22:19:12.765Z,102217.47
2022-09-07T22:21:39.389Z,102230.69
2022-09-07T22:24:11.288Z,102227.13
2022-09-07T22:26:40.766Z,102221.81
2022-09-07T22:29:10.574Z,102227.13
2022-09-07T22:31:38.320Z,102222.81
2022-09-07T22:34:10.019Z,102222.00
2022-09-07T22:36:43.147Z,102221.16
2022-09-07T22:39:20.577Z,102222.91
2022-09-07T22:41:47.883Z,102231.72
2022-09-07T22:44:16.994Z,102222.91
2022-09-07T22:46:45.654Z,102234.41
2022-09-07T22:49:15.139Z,102231.78
2022-09-07T22:51:42.067Z,102234.41
2022-09-07T22:54:09.102Z,102235.34
2022-09-07T22:56:36.486Z,102221.22
2022-09-07T22:59:07.649Z,102232.75
2022-09-07T23:01:35.029Z,102232.75
2022-09-07T23:04:05.487Z,102229.19
2022-09-07T23:06:36.775Z,102234.53
2022-09-07T23:09:10.242Z,102226.63
2022-09-07T23:11:37.897Z,102224.88
2022-09-07T23:14:06.875Z,102240.81
2022-09-07T23:16:36.657Z,102231.13
2022-09-07T23:19:03.830Z,102232.94
2022-09-07T23:21:30.585Z,102237.38
2022-09-07T23:23:59.791Z,102240.03
2022-09-07T23:26:29.092Z,102238.31
2022-09-07T23:29:06.542Z,102234.88
2022-09-07T23:31:35.080Z,102239.31
2022-09-07T23:34:03.750Z,102240.25
2022-09-07T23:36:32.142Z,102243.84
2022-09-07T23:38:59.868Z,102238.63
2022-09-07T23:41:27.044Z,102241.34
2022-09-07T23:43:54.753Z,102242.28
2022-09-07T23:46:21.923Z,102229.94
2022-09-07T23:48:49.392Z,102240.59
2022-09-07T23:51:23.777Z,102234.44
2022-09-07T23:53:52.042Z,102231.81
2022-09-07T23:56:23.563Z,102233.66
2022-09-07T23:58:50.164Z,102237.19
